CYWG/YWG METAR and TAF weather

Enter ICAO airport designator
Station Type Date Time Source
CYWG METAR 2019/12/14 06:00 UTC NOAA

CYWG 140600Z 33009KT 15SM IC SKC M24/M27 A3009 RMK FROIN SLP216


Station Type Date Time Source
CYWG Decoded METAR 2019/12/14 06:00 UTC NOAA

Winnipeg Int. Airportman., Canada (CYWG) 49-54N 097-14W 239M
Dec 14, 2019 - 01:00 AM EST / 2019.12.14 0600 UTC
Wind: from the NNW (330 degrees) at 10 MPH (9 KT):0
Visibility: 15 mile(s):0
Sky conditions: clear
Weather: ice crystals
Temperature: -11 F (-24 C)
Windchill: -29 F (-34 C):2
Dew Point: -16 F (-27 C)
Relative Humidity: 76%
Pressure (altimeter): 30.09 in. Hg (1018 hPa)
ob: CYWG 140600Z 33009KT 15SM IC SKC M24/M27 A3009 RMK FROIN SLP216
cycle: 6

Station Type Date Time Source
CYWG TAF 2019/12/14 06:39 UTC NOAA

TAF CYWG 140538Z 1406/1506 33010KT P6SM IC FEW020
FM141600 32008KT P6SM IC SKC
BECMG 1420/1422 22006KT
RMK NXT FCST BY 141200Z

Example: see airport list